Time;durP1;ratioP1;P1;durP2;ratioP2;P2;SDS_P1;SDS_P2;PMS_P1;PMS_P2;Temp;Humidity;BMP_temperature;BMP_pressure;BME280_temperature;BME280_humidity;BME280_pressure;Samples;Min_cycle;Max_cycle;Signal;HPM_P1;HPM_P2
2022/10/14 00:02:01;;;;;;;558.43;520.80;;;12.60;46.60;;;;;;4995645;28;20181;-73
2022/10/14 00:04:26;;;;;;;447.67;421.17;;;12.60;48.00;;;;;;4995750;28;20431;-70
2022/10/14 00:06:52;;;;;;;722.77;664.40;;;12.70;48.00;;;;;;4995798;28;20176;-71
2022/10/14 00:09:17;;;;;;;607.03;563.93;;;12.60;47.40;;;;;;4987268;28;20183;-73
2022/10/14 00:11:43;;;;;;;531.70;499.77;;;12.60;47.40;;;;;;4976074;28;20187;-70
2022/10/14 00:14:13;;;;;;;749.53;691.03;;;12.70;48.20;;;;;;4976278;28;20291;-71
2022/10/14 00:16:41;;;;;;;729.73;674.23;;;12.70;46.40;;;;;;4976289;28;20653;-70
2022/10/14 00:19:07;;;;;;;722.40;665.63;;;12.70;46.60;;;;;;4976177;28;20436;-71
2022/10/14 00:21:33;;;;;;;636.03;590.47;;;12.70;47.00;;;;;;4987024;28;20461;-72
2022/10/14 00:23:59;;;;;;;486.97;453.97;;;12.80;46.60;;;;;;4989476;28;20634;-71
2022/10/14 00:26:34;;;;;;;380.53;356.37;;;12.70;47.30;;;;;;4995852;28;20424;-71
2022/10/14 00:29:02;;;;;;;424.07;399.37;;;12.80;46.40;;;;;;4984344;28;20426;-71
2022/10/14 00:31:28;;;;;;;411.53;387.10;;;12.70;47.20;;;;;;4975366;28;20922;-71
2022/10/14 00:33:53;;;;;;;620.43;573.13;;;12.70;47.90;;;;;;4988241;28;20457;-71
2022/10/14 00:36:21;;;;;;;733.43;678.60;;;12.60;47.20;;;;;;4994998;28;20184;-71
2022/10/14 00:38:47;;;;;;;471.17;440.63;;;12.60;47.70;;;;;;4994160;28;20181;-71
2022/10/14 00:41:17;;;;;;;863.30;790.20;;;12.70;48.00;;;;;;4995265;28;20464;-71
2022/10/14 00:44:04;;;;;;;614.00;567.33;;;12.70;47.10;;;;;;4984539;28;20870;-71
2022/10/14 00:46:35;;;;;;;573.50;534.47;;;12.60;47.70;;;;;;4975665;28;20403;-71
2022/10/14 00:49:07;;;;;;;475.40;440.77;;;12.60;47.70;;;;;;4975682;28;20455;-71
2022/10/14 00:51:35;;;;;;;489.83;457.93;;;12.60;47.10;;;;;;4975315;28;20421;-72
2022/10/14 00:54:00;;;;;;;439.40;407.97;;;12.60;48.00;;;;;;4975613;28;20541;-71
2022/10/14 00:56:29;;;;;;;524.10;490.27;;;12.70;47.70;;;;;;4975326;28;20973;-71
2022/10/14 00:58:55;;;;;;;416.27;391.17;;;12.70;47.00;;;;;;4975335;28;20177;-71
2022/10/14 01:01:21;;;;;;;487.83;459.33;;;12.70;47.90;;;;;;4975048;28;20461;-72
2022/10/14 01:03:47;;;;;;;442.67;415.43;;;12.70;47.70;;;;;;4975235;28;20440;-73
2022/10/14 01:06:37;;;;;;;687.10;632.70;;;12.70;47.50;;;;;;4988201;28;20208;-71
2022/10/14 01:09:27;;;;;;;368.10;344.50;;;12.70;46.50;;;;;;4994436;28;20173;-71
2022/10/14 01:12:07;;;;;;;613.03;568.13;;;12.70;47.60;;;;;;4994449;28;20430;-72
2022/10/14 01:14:48;;;;;;;424.13;400.47;;;12.70;47.00;;;;;;4994512;28;20436;-72
2022/10/14 01:17:29;;;;;;;459.73;432.67;;;12.70;47.80;;;;;;4994047;28;20430;-73
2022/10/14 01:20:22;;;;;;;676.70;628.33;;;12.60;48.30;;;;;;4994430;28;20462;-71
2022/10/14 01:23:33;;;;;;;483.33;456.43;;;12.70;48.10;;;;;;4994014;28;20400;-72
2022/10/14 01:26:14;;;;;;;465.40;439.57;;;12.70;48.30;;;;;;4994414;28;20909;-72
2022/10/14 01:28:51;;;;;;;370.20;346.97;;;12.80;47.00;;;;;;4994448;28;20553;-72
2022/10/14 01:31:22;;;;;;;866.63;794.67;;;12.80;46.50;;;;;;4974737;28;20480;-72
2022/10/14 01:33:54;;;;;;;370.07;348.07;;;12.70;46.50;;;;;;4974689;28;20437;-72
2022/10/14 01:36:28;;;;;;;692.93;636.77;;;12.70;47.90;;;;;;4974799;28;20469;-71
2022/10/14 01:38:57;;;;;;;675.13;624.60;;;12.80;46.70;;;;;;4974709;28;20420;-71
2022/10/14 01:41:28;;;;;;;591.30;546.33;;;12.80;47.20;;;;;;4979062;28;20478;-71
2022/10/14 01:43:58;;;;;;;416.93;392.33;;;12.80;46.60;;;;;;5012179;23;20876;-68
2022/10/14 01:46:26;;;;;;;625.37;574.73;;;12.80;46.60;;;;;;4974169;28;20531;-68
2022/10/14 01:48:59;;;;;;;440.00;414.43;;;12.80;46.60;;;;;;4974643;28;20417;-68
2022/10/14 01:51:49;;;;;;;438.77;413.97;;;12.70;47.80;;;;;;4973001;28;20431;-70
2022/10/14 01:54:21;;;;;;;722.70;665.53;;;12.80;47.20;;;;;;4974124;28;20441;-70
2022/10/14 01:56:48;;;;;;;478.63;443.97;;;12.70;46.20;;;;;;4973080;28;20656;-69
2022/10/14 01:59:17;;;;;;;487.13;457.07;;;12.70;47.00;;;;;;4974037;28;20759;-70
2022/10/14 02:01:42;;;;;;;462.77;430.60;;;12.80;46.80;;;;;;4973783;28;20456;-70
2022/10/14 02:04:17;;;;;;;631.93;584.40;;;12.80;46.40;;;;;;4974120;28;20533;-69
2022/10/14 02:07:07;;;;;;;413.77;388.53;;;12.80;45.70;;;;;;4973966;28;20181;-71
2022/10/14 02:10:12;;;;;;;560.10;522.30;;;12.70;47.20;;;;;;4965773;28;20462;-68
2022/10/14 02:12:57;;;;;;;614.10;568.33;;;12.80;47.00;;;;;;4973734;28;20798;-69
2022/10/14 02:15:25;;;;;;;673.97;623.33;;;12.80;46.90;;;;;;4973111;28;20815;-69
2022/10/14 02:18:02;;;;;;;830.23;761.27;;;12.70;46.60;;;;;;4973828;28;20496;-69
2022/10/14 02:20:44;;;;;;;568.23;530.23;;;12.70;47.30;;;;;;4972894;28;20469;-69
2022/10/14 02:23:15;;;;;;;507.50;472.90;;;12.70;47.50;;;;;;4973969;28;20500;-69
2022/10/14 02:25:43;;;;;;;472.07;439.47;;;12.70;47.00;;;;;;4973528;28;20461;-69
2022/10/14 02:28:14;;;;;;;466.73;435.90;;;12.70;47.00;;;;;;4975500;28;20436;-69
2022/10/14 02:30:50;;;;;;;654.73;605.93;;;12.70;46.90;;;;;;4974297;28;20408;-69
2022/10/14 02:33:19;;;;;;;426.73;400.67;;;12.80;47.00;;;;;;4973684;28;20415;-69
2022/10/14 02:35:47;;;;;;;372.30;349.50;;;12.80;47.10;;;;;;4973556;28;20435;-69
2022/10/14 02:38:13;;;;;;;472.27;441.60;;;12.70;47.10;;;;;;4973362;28;20456;-69
2022/10/14 02:40:43;;;;;;;792.70;728.87;;;12.70;47.10;;;;;;4973261;28;20550;-69
2022/10/14 02:43:10;;;;;;;535.17;497.87;;;12.70;46.70;;;;;;4973249;28;20433;-69
2022/10/14 02:45:41;;;;;;;548.00;512.63;;;12.70;48.00;;;;;;4973282;28;20878;-69
2022/10/14 02:48:07;;;;;;;412.13;389.23;;;12.80;46.80;;;;;;4972138;28;20493;-69
2022/10/14 02:50:33;;;;;;;826.47;758.97;;;12.80;46.20;;;;;;4973106;28;20522;-69
2022/10/14 02:52:59;;;;;;;501.00;469.47;;;12.80;45.30;;;;;;4972151;28;20455;-69
2022/10/14 02:55:24;;;;;;;817.33;747.37;;;12.80;45.90;;;;;;4972421;28;20502;-69
2022/10/14 02:57:50;;;;;;;929.53;848.53;;;12.90;44.80;;;;;;4973981;28;20180;-69
2022/10/14 03:00:16;;;;;;;643.77;595.97;;;12.90;44.80;;;;;;4973729;28;20643;-69
2022/10/14 03:02:42;;;;;;;894.30;817.23;;;12.90;45.20;;;;;;4973645;28;20191;-69
2022/10/14 03:05:08;;;;;;;667.90;617.90;;;12.90;44.00;;;;;;4973823;28;20439;-69
2022/10/14 03:07:33;;;;;;;526.70;492.57;;;12.90;44.90;;;;;;4972241;28;20217;-69
2022/10/14 03:09:59;;;;;;;711.77;655.27;;;12.90;45.00;;;;;;4973675;28;20451;-70
2022/10/14 03:12:25;;;;;;;659.63;609.40;;;12.90;45.40;;;;;;4971551;28;20643;-69
2022/10/14 03:14:50;;;;;;;791.53;726.30;;;13.00;44.10;;;;;;4973136;28;20674;-70
2022/10/14 03:17:16;;;;;;;644.93;595.57;;;13.00;44.00;;;;;;4973241;28;20479;-70
2022/10/14 03:19:42;;;;;;;526.27;490.70;;;13.00;44.00;;;;;;4972988;28;20214;-70
2022/10/14 03:22:07;;;;;;;806.43;740.57;;;13.00;44.00;;;;;;4971779;28;20224;-70
2022/10/14 03:24:33;;;;;;;617.23;571.57;;;12.90;43.90;;;;;;4973130;28;20200;-70
2022/10/14 03:26:58;;;;;;;525.50;490.47;;;12.90;43.90;;;;;;4973032;28;20187;-70
2022/10/14 03:29:24;;;;;;;774.47;710.60;;;12.90;43.80;;;;;;4976208;28;20188;-70
2022/10/14 03:31:49;;;;;;;443.03;413.80;;;13.00;43.10;;;;;;4975243;28;20562;-70
2022/10/14 03:34:15;;;;;;;469.50;437.63;;;13.00;42.80;;;;;;4975628;28;20208;-70
2022/10/14 03:36:41;;;;;;;390.47;363.53;;;13.00;42.60;;;;;;4976908;28;20185;-70
2022/10/14 03:39:07;;;;;;;491.17;456.50;;;13.00;42.70;;;;;;4976826;28;20185;-70
2022/10/14 03:41:33;;;;;;;370.73;345.43;;;13.10;41.60;;;;;;4976511;28;20218;-70
2022/10/14 03:43:58;;;;;;;540.63;499.27;;;13.10;42.40;;;;;;4976459;28;21007;-70
2022/10/14 03:46:24;;;;;;;566.23;525.93;;;13.10;42.20;;;;;;4976966;28;20264;-70
2022/10/14 03:48:49;;;;;;;528.67;493.50;;;13.00;42.30;;;;;;4976737;28;20181;-70
2022/10/14 03:51:15;;;;;;;563.47;520.17;;;13.10;42.20;;;;;;4976446;28;20232;-70
2022/10/14 03:53:40;;;;;;;591.43;547.13;;;13.10;41.60;;;;;;4976464;28;20229;-70
2022/10/14 03:56:06;;;;;;;548.20;507.60;;;13.00;41.40;;;;;;4976313;28;20659;-70
2022/10/14 03:58:32;;;;;;;401.27;372.20;;;13.00;41.10;;;;;;4976630;28;20192;-70
2022/10/14 04:00:57;;;;;;;746.77;681.03;;;13.10;41.30;;;;;;4976226;28;20729;-70
2022/10/14 04:03:23;;;;;;;587.80;541.87;;;13.00;41.20;;;;;;4976259;28;20185;-70
2022/10/14 04:05:48;;;;;;;829.77;756.53;;;13.00;41.40;;;;;;4976218;28;20204;-69
2022/10/14 04:08:14;;;;;;;795.53;730.10;;;13.00;41.00;;;;;;4975985;28;20211;-70
2022/10/14 04:10:39;;;;;;;665.33;611.30;;;13.00;41.50;;;;;;4976194;28;20220;-70
2022/10/14 04:13:05;;;;;;;552.60;509.70;;;13.00;41.60;;;;;;4976008;28;20220;-69
2022/10/14 04:15:30;;;;;;;786.90;721.67;;;12.90;41.40;;;;;;4976080;28;20648;-69
2022/10/14 04:17:56;;;;;;;728.00;666.60;;;13.00;41.10;;;;;;4975992;28;20564;-70
2022/10/14 04:20:22;;;;;;;492.83;457.90;;;12.90;40.70;;;;;;4975983;28;20727;-69
2022/10/14 04:22:47;;;;;;;859.53;786.80;;;12.90;41.60;;;;;;4975718;28;20191;-70
2022/10/14 04:25:13;;;;;;;705.30;648.13;;;12.90;41.40;;;;;;4975965;28;20200;-69
2022/10/14 04:27:38;;;;;;;318.97;300.10;;;12.90;41.20;;;;;;4975866;28;20186;-70
2022/10/14 04:30:05;;;;;;;429.67;404.37;;;12.90;41.10;;;;;;4975939;28;20556;-69
2022/10/14 04:32:30;;;;;;;494.70;456.73;;;12.80;41.30;;;;;;4975498;28;20209;-69
2022/10/14 04:34:56;;;;;;;437.80;407.03;;;12.80;41.10;;;;;;4975721;28;20460;-70
2022/10/14 04:37:21;;;;;;;390.03;362.87;;;12.90;41.00;;;;;;4975602;28;20803;-70
2022/10/14 04:39:47;;;;;;;454.87;422.07;;;12.90;40.90;;;;;;4975033;28;20177;-70
2022/10/14 04:42:13;;;;;;;575.77;529.17;;;13.00;39.90;;;;;;4975624;28;20543;-69
2022/10/14 04:44:38;;;;;;;812.50;742.23;;;13.00;38.80;;;;;;4975488;28;20215;-69
2022/10/14 04:47:04;;;;;;;416.80;392.57;;;13.00;39.80;;;;;;4975694;28;20187;-69
2022/10/14 04:49:30;;;;;;;435.37;407.13;;;12.90;39.90;;;;;;4975554;28;20185;-69
2022/10/14 04:51:56;;;;;;;600.93;555.97;;;13.00;39.40;;;;;;4975010;28;20507;-69
2022/10/14 04:54:21;;;;;;;843.57;772.80;;;12.90;38.90;;;;;;4974096;28;20705;-70
2022/10/14 04:56:47;;;;;;;485.60;449.50;;;12.90;38.70;;;;;;4975177;28;20592;-69
2022/10/14 04:59:12;;;;;;;640.53;590.50;;;12.90;39.20;;;;;;4975293;28;20184;-69
2022/10/14 05:01:41;;;;;;;790.77;723.80;;;13.00;38.80;;;;;;4975056;28;20216;-69
2022/10/14 05:04:07;;;;;;;407.53;375.57;;;13.00;38.90;;;;;;4975164;28;20204;-69
2022/10/14 05:06:32;;;;;;;515.33;475.27;;;13.00;38.80;;;;;;4975140;28;20413;-69
2022/10/14 05:08:58;;;;;;;522.13;481.73;;;13.10;38.40;;;;;;4974592;28;20659;-70
2022/10/14 05:11:23;;;;;;;665.07;608.27;;;13.00;38.10;;;;;;4974389;28;20231;-70
2022/10/14 05:13:49;;;;;;;620.33;571.63;;;13.00;38.80;;;;;;4974738;28;20245;-69
2022/10/14 05:16:14;;;;;;;206.33;191.73;;;12.90;38.70;;;;;;4975038;28;20212;-70
2022/10/14 05:18:40;;;;;;;471.53;435.77;;;13.00;39.20;;;;;;4974924;28;20184;-70
2022/10/14 05:21:05;;;;;;;451.43;419.67;;;13.00;38.80;;;;;;4974559;28;20694;-70
2022/10/14 05:23:31;;;;;;;579.43;534.67;;;13.00;38.80;;;;;;4974820;28;20230;-70
2022/10/14 05:25:56;;;;;;;290.87;270.90;;;13.00;38.30;;;;;;4974761;28;20255;-70
2022/10/14 05:28:22;;;;;;;423.80;394.67;;;13.00;38.40;;;;;;4973521;28;20184;-70
2022/10/14 05:30:48;;;;;;;359.10;328.80;;;13.00;37.90;;;;;;4974835;28;20259;-70
2022/10/14 05:33:14;;;;;;;425.33;393.10;;;13.00;38.40;;;;;;4974491;28;20696;-69
2022/10/14 05:35:40;;;;;;;593.37;548.20;;;13.00;38.20;;;;;;4974537;28;20443;-70
2022/10/14 05:38:06;;;;;;;455.10;422.07;;;12.90;38.50;;;;;;4974797;28;20185;-70
2022/10/14 05:40:31;;;;;;;390.70;364.97;;;12.90;38.70;;;;;;4974453;28;20468;-69
2022/10/14 05:42:57;;;;;;;579.30;533.33;;;13.00;38.10;;;;;;4974580;28;20548;-69
2022/10/14 05:45:22;;;;;;;558.80;513.60;;;13.00;38.00;;;;;;4974507;28;20723;-69
2022/10/14 05:47:48;;;;;;;546.13;502.70;;;13.00;37.50;;;;;;4974709;28;20189;-69
2022/10/14 05:50:14;;;;;;;664.97;613.40;;;13.00;37.30;;;;;;4974135;28;20204;-69
2022/10/14 05:52:39;;;;;;;927.90;846.27;;;13.00;37.50;;;;;;4972763;28;20280;-69
2022/10/14 05:55:08;;;;;;;379.40;353.77;;;13.00;37.00;;;;;;4974203;28;21146;-69
2022/10/14 05:57:34;;;;;;;430.17;399.67;;;13.00;36.60;;;;;;4974666;28;20185;-67
2022/10/14 06:00:00;;;;;;;449.50;414.43;;;13.00;36.30;;;;;;4972931;28;20423;-69
2022/10/14 06:02:26;;;;;;;561.23;512.70;;;12.90;36.60;;;;;;4974449;28;20653;-69
2022/10/14 06:04:51;;;;;;;936.20;854.60;;;12.90;36.80;;;;;;4974130;28;20440;-69
2022/10/14 06:07:17;;;;;;;568.97;523.77;;;13.00;36.60;;;;;;4974397;28;20177;-67
2022/10/14 06:09:43;;;;;;;505.53;461.07;;;13.10;36.60;;;;;;4974054;28;20549;-68
2022/10/14 06:12:09;;;;;;;653.47;595.20;;;13.10;35.70;;;;;;4974227;28;20573;-67
2022/10/14 06:14:35;;;;;;;396.40;362.83;;;13.20;35.00;;;;;;4972688;28;20757;-69
2022/10/14 06:17:01;;;;;;;409.77;377.30;;;13.30;34.80;;;;;;4974174;28;20796;-68
2022/10/14 06:19:27;;;;;;;384.17;354.80;;;13.50;34.00;;;;;;4974165;28;20420;-69
2022/10/14 06:21:52;;;;;;;293.57;273.77;;;13.60;32.80;;;;;;4973981;28;20216;-69
2022/10/14 06:24:18;;;;;;;331.63;304.97;;;13.60;33.10;;;;;;4974035;28;20188;-69
2022/10/14 06:26:43;;;;;;;793.43;718.60;;;13.60;32.90;;;;;;4974323;28;20239;-69
2022/10/14 06:29:09;;;;;;;861.20;784.27;;;13.60;32.30;;;;;;4973851;28;20236;-69
2022/10/14 06:31:35;;;;;;;656.27;598.20;;;13.60;31.80;;;;;;4973653;28;20181;-69
2022/10/14 06:34:04;;;;;;;300.50;279.40;;;13.70;31.40;;;;;;4973847;28;20523;-70
2022/10/14 06:36:29;;;;;;;716.63;654.00;;;13.70;32.00;;;;;;4974306;28;20201;-70
2022/10/14 06:38:55;;;;;;;709.13;648.43;;;13.80;31.60;;;;;;4974436;28;20481;-68
2022/10/14 06:41:20;;;;;;;433.67;397.60;;;13.80;31.10;;;;;;4972520;28;20205;-69
2022/10/14 06:43:46;;;;;;;984.17;890.07;;;13.90;31.10;;;;;;4973891;28;20201;-69
2022/10/14 06:46:12;;;;;;;573.20;523.70;;;14.00;30.20;;;;;;4973721;28;20407;-67
2022/10/14 06:48:37;;;;;;;464.63;426.90;;;14.00;30.40;;;;;;4971421;28;20212;-69
2022/10/14 06:51:03;;;;;;;447.40;410.77;;;14.10;29.80;;;;;;4971094;28;20553;-68
2022/10/14 06:53:29;;;;;;;455.43;417.80;;;14.20;29.90;;;;;;4972747;28;20276;-70
2022/10/14 06:56:05;;;;;;;469.07;432.10;;;14.20;29.80;;;;;;4971177;28;20667;-69
2022/10/14 06:58:32;;;;;;;754.53;687.90;;;14.30;29.70;;;;;;4969256;28;20438;-69
2022/10/14 07:01:05;;;;;;;750.93;679.50;;;14.40;29.70;;;;;;4970732;28;20464;-69
2022/10/14 07:03:33;;;;;;;672.63;611.47;;;14.50;29.30;;;;;;4969652;28;20429;-69
2022/10/14 07:06:02;;;;;;;775.90;704.53;;;14.70;28.70;;;;;;4970308;28;20524;-69
2022/10/14 07:08:27;;;;;;;858.67;774.87;;;14.60;28.30;;;;;;4970597;28;20911;-69
2022/10/14 07:10:53;;;;;;;630.23;571.60;;;14.50;28.60;;;;;;4968814;28;20440;-67
2022/10/14 07:13:19;;;;;;;673.77;613.77;;;14.60;28.40;;;;;;4970135;28;20189;-70
2022/10/14 07:15:48;;;;;;;368.27;339.93;;;14.60;28.20;;;;;;4969222;28;20193;-69
2022/10/14 07:18:14;;;;;;;602.60;549.87;;;14.70;28.60;;;;;;4969370;28;20813;-68
2022/10/14 07:20:40;;;;;;;518.10;474.73;;;14.70;27.70;;;;;;4972058;28;20456;-69
2022/10/14 07:23:05;;;;;;;1074.67;956.33;;;14.80;27.20;;;;;;4969040;28;20432;-70
2022/10/14 07:25:31;;;;;;;951.37;860.20;;;14.80;27.20;;;;;;4969320;28;20594;-68
2022/10/14 07:27:58;;;;;;;392.43;359.70;;;14.90;27.20;;;;;;4969480;28;20177;-69
2022/10/14 07:30:23;;;;;;;715.77;644.87;;;15.00;27.50;;;;;;4969911;28;20588;-70
2022/10/14 07:32:49;;;;;;;277.87;256.93;;;15.20;26.70;;;;;;4978663;28;20508;-69
2022/10/14 07:35:16;;;;;;;376.63;350.53;;;15.40;26.30;;;;;;4970117;28;20205;-69
2022/10/14 07:37:41;;;;;;;739.27;667.80;;;15.50;26.10;;;;;;4959180;28;20268;-70
2022/10/14 07:40:08;;;;;;;708.23;632.40;;;15.60;25.60;;;;;;4969515;28;21020;-70
2022/10/14 07:42:34;;;;;;;722.83;653.83;;;15.60;25.50;;;;;;4967304;28;20524;-70
2022/10/14 07:44:59;;;;;;;800.10;723.03;;;15.70;25.40;;;;;;4991352;23;20598;-70
2022/10/14 07:47:25;;;;;;;629.87;561.67;;;15.70;25.00;;;;;;4970224;28;20192;-72
2022/10/14 07:49:51;;;;;;;780.57;698.00;;;15.70;25.60;;;;;;4978522;28;20581;-70
2022/10/14 07:52:18;;;;;;;1145.80;930.77;;;15.80;25.30;;;;;;4972520;28;20243;-70
2022/10/14 07:54:44;;;;;;;617.43;559.57;;;16.00;25.30;;;;;;4975122;28;20550;-70
2022/10/14 07:57:11;;;;;;;874.03;781.17;;;16.10;24.70;;;;;;4986490;28;20419;-69
2022/10/14 07:59:37;;;;;;;842.50;721.10;;;16.30;23.70;;;;;;4984996;28;20606;-70
2022/10/14 08:02:03;;;;;;;543.67;491.40;;;16.40;23.50;;;;;;4983472;28;20596;-70
2022/10/14 08:04:29;;;;;;;995.40;831.90;;;16.40;23.50;;;;;;4968631;28;20582;-71
2022/10/14 08:06:54;;;;;;;874.93;779.30;;;16.50;23.40;;;;;;4968107;28;20432;-69
2022/10/14 08:09:20;;;;;;;1138.13;919.83;;;16.40;22.70;;;;;;4970040;28;20243;-69
2022/10/14 08:11:46;;;;;;;670.00;608.30;;;16.40;23.10;;;;;;4973050;28;20182;-69
2022/10/14 08:14:14;;;;;;;1135.93;864.30;;;16.40;23.40;;;;;;4974981;28;20197;-70
2022/10/14 08:16:40;;;;;;;942.27;726.10;;;16.40;23.70;;;;;;4976317;28;20178;-73
2022/10/14 08:19:09;;;;;;;444.80;397.83;;;16.40;23.60;;;;;;4977062;28;20424;-71
2022/10/14 08:21:37;;;;;;;971.23;787.60;;;16.30;23.80;;;;;;4974626;28;20263;-71
2022/10/14 08:24:05;;;;;;;627.13;558.93;;;16.50;23.50;;;;;;4975768;28;20444;-72
2022/10/14 08:26:39;;;;;;;440.47;398.07;;;16.50;23.50;;;;;;4974566;28;20535;-72
2022/10/14 08:29:10;;;;;;;1422.40;999.90;;;16.60;22.90;;;;;;4975930;28;20830;-71
2022/10/14 08:31:36;;;;;;;478.50;435.23;;;16.60;22.90;;;;;;4969313;28;20500;-71
2022/10/14 08:34:01;;;;;;;592.87;523.43;;;16.60;23.00;;;;;;4957812;28;20764;-71
2022/10/14 08:36:27;;;;;;;346.90;318.30;;;16.70;23.00;;;;;;4957764;28;20189;-72
2022/10/14 08:38:53;;;;;;;1309.17;956.43;;;16.80;23.00;;;;;;4957436;28;20178;-70
2022/10/14 08:41:29;;;;;;;945.07;774.93;;;17.10;22.70;;;;;;4957589;28;20536;-70
2022/10/14 08:44:14;;;;;;;875.70;754.70;;;17.20;22.10;;;;;;4959226;28;20907;-71
2022/10/14 08:46:57;;;;;;;617.57;506.90;;;17.30;21.80;;;;;;4961898;28;20507;-73
2022/10/14 08:49:41;;;;;;;434.33;393.50;;;17.60;21.20;;;;;;4976781;28;20475;-72
2022/10/14 08:52:42;;;;;;;570.80;525.20;;;18.00;20.00;;;;;;4977769;28;20440;-72
2022/10/14 08:55:42;;;;;;;602.03;556.83;;;17.90;19.50;;;;;;4995403;28;20518;-73
2022/10/14 08:58:30;;;;;;;471.93;433.80;;;17.80;19.70;;;;;;4996010;28;20484;-74
2022/10/14 09:00:58;;;;;;;491.10;448.47;;;18.00;20.30;;;;;;4997658;28;20487;-72
2022/10/14 09:03:32;;;;;;;750.90;688.93;;;18.00;19.60;;;;;;4996333;28;20428;-73
2022/10/14 09:06:09;;;;;;;320.10;294.80;;;18.00;19.60;;;;;;4998805;28;20504;-73
2022/10/14 09:08:41;;;;;;;719.53;658.57;;;18.30;19.00;;;;;;4997887;28;20448;-73
2022/10/14 09:11:16;;;;;;;746.50;680.40;;;18.10;19.20;;;;;;4998749;28;20413;-73
2022/10/14 09:13:45;;;;;;;635.20;586.90;;;18.10;19.00;;;;;;4997361;28;20953;-75
2022/10/14 09:16:19;;;;;;;562.67;521.53;;;17.90;19.50;;;;;;4997626;28;20447;-73
2022/10/14 09:18:54;;;;;;;567.40;525.97;;;17.60;19.30;;;;;;4997779;28;20428;-72
2022/10/14 09:21:32;;;;;;;403.07;369.93;;;17.80;20.60;;;;;;4996742;28;20456;-74
2022/10/14 09:24:02;;;;;;;534.50;495.63;;;18.00;19.80;;;;;;4995852;28;20412;-71
2022/10/14 09:26:49;;;;;;;325.83;301.20;;;18.00;19.60;;;;;;4981537;28;20409;-71
2022/10/14 09:29:44;;;;;;;668.80;614.07;;;17.90;19.90;;;;;;4976211;28;20776;-71
2022/10/14 09:32:19;;;;;;;502.13;465.67;;;18.30;19.10;;;;;;4975331;28;20761;-72
2022/10/14 09:34:48;;;;;;;453.07;414.13;;;18.60;18.50;;;;;;4975546;28;20436;-71
2022/10/14 09:37:31;;;;;;;565.80;519.63;;;18.80;17.70;;;;;;4974814;28;20420;-72
2022/10/14 09:40:12;;;;;;;634.83;579.73;;;19.00;16.50;;;;;;4965825;28;20412;-70
2022/10/14 09:42:56;;;;;;;582.83;533.40;;;18.70;16.30;;;;;;4975002;28;20408;-70
2022/10/14 09:45:25;;;;;;;451.40;414.73;;;18.90;17.10;;;;;;4955398;28;21046;-70
2022/10/14 09:48:06;;;;;;;582.90;533.80;;;18.90;16.60;;;;;;4955702;28;20775;-70
2022/10/14 09:50:39;;;;;;;524.33;487.07;;;18.80;17.10;;;;;;4954956;29;20794;-70
2022/10/14 09:53:14;;;;;;;932.27;851.27;;;19.20;17.50;;;;;;4954521;29;20433;-70
2022/10/14 09:55:48;;;;;;;776.43;709.10;;;19.50;16.20;;;;;;4961682;28;20428;-70
2022/10/14 09:58:17;;;;;;;640.93;583.47;;;19.60;16.00;;;;;;4974627;28;20428;-70
2022/10/14 10:00:45;;;;;;;763.67;694.93;;;19.80;15.20;;;;;;4973909;28;20476;-70
2022/10/14 10:03:25;;;;;;;498.53;457.67;;;19.90;15.20;;;;;;4974389;28;20411;-70
2022/10/14 10:06:01;;;;;;;580.90;536.37;;;19.80;15.20;;;;;;4974117;28;20441;-70
2022/10/14 10:08:27;;;;;;;651.23;593.00;;;19.90;15.50;;;;;;4974271;28;20448;-70
2022/10/14 10:11:03;;;;;;;553.77;504.30;;;20.00;15.10;;;;;;4974566;28;20472;-70
2022/10/14 10:13:44;;;;;;;572.67;522.73;;;19.90;15.20;;;;;;4979394;28;20217;-70
2022/10/14 10:16:20;;;;;;;685.30;627.00;;;19.90;14.10;;;;;;4974160;28;20447;-70
2022/10/14 10:18:47;;;;;;;588.83;533.50;;;19.80;15.30;;;;;;4973980;28;20874;-70
2022/10/14 10:21:23;;;;;;;621.33;573.77;;;19.90;15.00;;;;;;4973968;28;20483;-71
2022/10/14 10:23:58;;;;;;;568.00;521.77;;;20.20;14.90;;;;;;4972871;28;20988;-70
2022/10/14 10:26:30;;;;;;;620.97;566.90;;;19.80;13.60;;;;;;4973557;28;20479;-70
2022/10/14 10:28:58;;;;;;;401.73;369.07;;;19.80;14.90;;;;;;4973592;28;20425;-71
2022/10/14 10:31:32;;;;;;;654.60;601.97;;;19.60;15.10;;;;;;4973305;28;20425;-70
2022/10/14 10:34:10;;;;;;;432.43;395.13;;;19.30;15.20;;;;;;4973240;28;20979;-70
2022/10/14 10:36:46;;;;;;;378.33;345.57;;;19.10;16.00;;;;;;4973337;28;20436;-71
2022/10/14 10:39:36;;;;;;;706.17;640.77;;;18.90;16.00;;;;;;4963349;28;20912;-70
2022/10/14 10:42:08;;;;;;;382.20;351.23;;;18.90;15.80;;;;;;4952724;29;20473;-70
2022/10/14 10:44:46;;;;;;;626.17;573.27;;;18.90;15.80;;;;;;4954241;29;20453;-71
2022/10/14 10:47:17;;;;;;;612.60;562.23;;;18.90;15.80;;;;;;4954280;28;20413;-70
2022/10/14 10:50:07;;;;;;;435.30;398.80;;;19.00;16.10;;;;;;4953000;29;20437;-72
2022/10/14 10:52:42;;;;;;;432.80;396.43;;;18.90;15.80;;;;;;4973259;28;20472;-70
2022/10/14 10:55:23;;;;;;;608.17;555.77;;;18.80;15.70;;;;;;4973358;28;20432;-69
2022/10/14 10:58:16;;;;;;;228.30;207.20;;;18.50;16.80;;;;;;4973288;28;20424;-66
2022/10/14 11:00:56;;;;;;;557.67;514.60;;;18.30;16.20;;;;;;4973295;28;20965;-70
2022/10/14 11:03:30;;;;;;;652.80;597.73;;;18.10;17.00;;;;;;4965946;28;20444;-69
2022/10/14 11:12:01;;;;;;;541.60;496.40;;;18.10;17.50;;;;;;4964630;28;20447;-70
2022/10/14 11:12:30;;;;;;;592.20;549.17;;;17.90;19.50;;;;;;4957423;28;20427;-70
2022/10/14 11:15:24;;;;;;;326.13;302.03;;;17.60;20.90;;;;;;4971984;28;20854;-68
2022/10/14 11:18:27;;;;;;;538.37;498.73;;;17.60;21.30;;;;;;4973191;28;21129;-69
2022/10/14 11:21:03;;;;;;;778.67;719.70;;;17.70;21.00;;;;;;4972617;28;20490;-69
2022/10/14 11:23:47;;;;;;;626.23;580.10;;;17.90;22.00;;;;;;4958215;28;20463;-69
2022/10/14 11:26:45;;;;;;;699.87;649.03;;;18.00;21.60;;;;;;4973198;28;20466;-69
2022/10/14 11:29:34;;;;;;;360.50;332.90;;;18.00;21.60;;;;;;4973135;28;20480;-69
2022/10/14 11:32:24;;;;;;;697.97;646.73;;;18.30;22.40;;;;;;4972643;28;20857;-69
2022/10/14 11:35:02;;;;;;;538.97;497.13;;;19.00;21.70;;;;;;4971547;28;20444;-69
2022/10/14 11:37:49;;;;;;;677.33;622.07;;;19.60;20.70;;;;;;4972555;28;20479;-69
2022/10/14 11:40:38;;;;;;;542.07;501.30;;;20.10;19.70;;;;;;4959149;28;20435;-69
2022/10/14 11:43:25;;;;;;;978.73;891.37;;;19.90;17.30;;;;;;4972462;28;20776;-69
2022/10/14 11:45:50;;;;;;;413.37;380.03;;;20.10;17.10;;;;;;4970753;28;20832;-73
2022/10/14 11:48:22;;;;;;;635.13;578.70;;;20.20;18.20;;;;;;4968271;28;20424;-70
2022/10/14 11:50:55;;;;;;;565.03;524.47;;;20.40;16.00;;;;;;4971406;28;20713;-69
2022/10/14 11:53:49;;;;;;;924.13;844.50;;;20.50;16.00;;;;;;4971079;28;20479;-70
2022/10/14 11:56:31;;;;;;;329.67;302.00;;;20.50;16.60;;;;;;4953122;28;20440;-72
2022/10/14 11:59:17;;;;;;;408.83;373.53;;;20.80;15.40;;;;;;4960431;28;21044;-70
2022/10/14 12:01:44;;;;;;;731.03;670.17;;;20.90;15.30;;;;;;4959780;28;20484;-68
2022/10/14 12:04:21;;;;;;;758.57;693.33;;;20.70;14.20;;;;;;4974735;28;20531;-69
2022/10/14 12:07:12;;;;;;;713.53;658.60;;;20.80;14.50;;;;;;4975912;28;20509;-70
2022/10/14 12:09:43;;;;;;;584.97;537.13;;;21.00;14.60;;;;;;4972904;28;20917;-69
2022/10/14 12:12:13;;;;;;;386.97;355.13;;;21.10;13.90;;;;;;4975691;28;20428;-69
2022/10/14 12:14:48;;;;;;;570.80;523.97;;;20.90;13.60;;;;;;4956787;28;20448;-70
2022/10/14 12:17:47;;;;;;;672.73;611.27;;;21.20;14.10;;;;;;4956652;28;20420;-70
2022/10/14 12:20:26;;;;;;;451.20;412.17;;;20.80;13.10;;;;;;4953763;28;20429;-70
2022/10/14 12:22:52;;;;;;;811.67;735.80;;;20.90;14.20;;;;;;4956463;28;20410;-69
2022/10/14 12:25:22;;;;;;;782.07;714.20;;;20.80;14.20;;;;;;4972456;28;20448;-71
2022/10/14 12:27:49;;;;;;;635.63;582.90;;;20.70;14.50;;;;;;4975477;28;20425;-72
2022/10/14 12:30:33;;;;;;;613.70;559.83;;;20.80;14.20;;;;;;4975831;28;20503;-69
2022/10/14 12:33:16;;;;;;;575.57;528.67;;;20.10;14.50;;;;;;4975538;28;20412;-70